sensor_id;sensor_type;location;lat;lon;timestamp;temperature;humidity
15900;DHT22;8048;50.644;6.184;2022-12-18T00:00:42;-2.80;57.80
15900;DHT22;8048;50.644;6.184;2022-12-18T00:03:07;-2.70;57.50
15900;DHT22;8048;50.644;6.184;2022-12-18T00:05:33;-2.70;57.50
15900;DHT22;8048;50.644;6.184;2022-12-18T00:07:59;-2.70;57.40
15900;DHT22;8048;50.644;6.184;2022-12-18T00:10:24;-2.70;57.30
15900;DHT22;8048;50.644;6.184;2022-12-18T00:12:50;-2.70;57.60
15900;DHT22;8048;50.644;6.184;2022-12-18T00:15:15;-2.80;57.50
15900;DHT22;8048;50.644;6.184;2022-12-18T00:17:41;-2.80;57.30
15900;DHT22;8048;50.644;6.184;2022-12-18T00:20:07;-2.70;57.60
15900;DHT22;8048;50.644;6.184;2022-12-18T00:22:33;-2.70;57.60
15900;DHT22;8048;50.644;6.184;2022-12-18T00:24:58;-2.70;57.40
15900;DHT22;8048;50.644;6.184;2022-12-18T00:27:24;-2.70;57.60
15900;DHT22;8048;50.644;6.184;2022-12-18T00:29:50;-2.70;57.40
15900;DHT22;8048;50.644;6.184;2022-12-18T00:32:15;-2.80;57.30
15900;DHT22;8048;50.644;6.184;2022-12-18T00:34:41;-2.80;57.30
15900;DHT22;8048;50.644;6.184;2022-12-18T00:37:06;-2.70;56.90
15900;DHT22;8048;50.644;6.184;2022-12-18T00:39:32;-2.60;56.70
15900;DHT22;8048;50.644;6.184;2022-12-18T00:41:57;-2.70;56.50
15900;DHT22;8048;50.644;6.184;2022-12-18T00:44:41;-2.60;56.60
15900;DHT22;8048;50.644;6.184;2022-12-18T00:47:07;-2.70;56.80
15900;DHT22;8048;50.644;6.184;2022-12-18T00:49:32;-2.60;56.70
15900;DHT22;8048;50.644;6.184;2022-12-18T00:51:58;-2.60;56.80
15900;DHT22;8048;50.644;6.184;2022-12-18T00:54:23;-2.60;57.20
15900;DHT22;8048;50.644;6.184;2022-12-18T00:56:49;-2.70;57.20
15900;DHT22;8048;50.644;6.184;2022-12-18T00:59:15;-2.60;57.40
15900;DHT22;8048;50.644;6.184;2022-12-18T01:01:41;-2.70;57.30
15900;DHT22;8048;50.644;6.184;2022-12-18T01:04:06;-2.70;57.10
15900;DHT22;8048;50.644;6.184;2022-12-18T01:06:32;-2.60;57.20
15900;DHT22;8048;50.644;6.184;2022-12-18T01:08:58;-2.60;57.10
15900;DHT22;8048;50.644;6.184;2022-12-18T01:11:24;-2.70;57.10
15900;DHT22;8048;50.644;6.184;2022-12-18T01:13:52;-2.70;57.30
15900;DHT22;8048;50.644;6.184;2022-12-18T01:16:18;-2.70;57.20
15900;DHT22;8048;50.644;6.184;2022-12-18T01:18:43;-2.70;56.90
15900;DHT22;8048;50.644;6.184;2022-12-18T01:21:12;-2.60;56.80
15900;DHT22;8048;50.644;6.184;2022-12-18T01:23:38;-2.60;56.80
15900;DHT22;8048;50.644;6.184;2022-12-18T01:26:06;-2.60;56.80
15900;DHT22;8048;50.644;6.184;2022-12-18T01:28:31;-2.70;57.10
15900;DHT22;8048;50.644;6.184;2022-12-18T01:30:57;-2.70;57.10
15900;DHT22;8048;50.644;6.184;2022-12-18T01:33:22;-2.80;57.40
15900;DHT22;8048;50.644;6.184;2022-12-18T01:35:49;-2.80;57.80
15900;DHT22;8048;50.644;6.184;2022-12-18T01:38:14;-2.70;58.00
15900;DHT22;8048;50.644;6.184;2022-12-18T01:40:40;-2.70;57.90
15900;DHT22;8048;50.644;6.184;2022-12-18T01:43:05;-2.70;58.60
15900;DHT22;8048;50.644;6.184;2022-12-18T01:45:33;-2.80;58.30
15900;DHT22;8048;50.644;6.184;2022-12-18T01:48:02;-2.80;58.30
15900;DHT22;8048;50.644;6.184;2022-12-18T01:50:42;-2.70;58.50
15900;DHT22;8048;50.644;6.184;2022-12-18T01:53:15;-2.70;58.50
15900;DHT22;8048;50.644;6.184;2022-12-18T01:56:02;-2.60;58.60
15900;DHT22;8048;50.644;6.184;2022-12-18T01:58:39;-2.70;58.80
15900;DHT22;8048;50.644;6.184;2022-12-18T02:01:07;-2.70;59.20
15900;DHT22;8048;50.644;6.184;2022-12-18T02:03:33;-2.70;59.70
15900;DHT22;8048;50.644;6.184;2022-12-18T02:17:21;-2.60;62.20
15900;DHT22;8048;50.644;6.184;2022-12-18T02:20:11;-2.60;63.40
15900;DHT22;8048;50.644;6.184;2022-12-18T02:27:39;-2.60;65.20
15900;DHT22;8048;50.644;6.184;2022-12-18T02:30:06;-2.60;65.20
15900;DHT22;8048;50.644;6.184;2022-12-18T02:32:39;-2.40;64.60
15900;DHT22;8048;50.644;6.184;2022-12-18T02:35:13;-2.40;64.30
15900;DHT22;8048;50.644;6.184;2022-12-18T02:37:42;-2.40;64.40
15900;DHT22;8048;50.644;6.184;2022-12-18T02:40:09;-2.40;64.30
15900;DHT22;8048;50.644;6.184;2022-12-18T02:42:36;-2.40;64.70
15900;DHT22;8048;50.644;6.184;2022-12-18T02:45:01;-2.10;64.10
15900;DHT22;8048;50.644;6.184;2022-12-18T02:47:33;-2.00;63.70
15900;DHT22;8048;50.644;6.184;2022-12-18T02:52:47;-1.90;63.50
15900;DHT22;8048;50.644;6.184;2022-12-18T02:58:03;-1.80;63.60
15900;DHT22;8048;50.644;6.184;2022-12-18T03:00:45;-1.70;63.70
15900;DHT22;8048;50.644;6.184;2022-12-18T03:03:20;-1.70;63.60
15900;DHT22;8048;50.644;6.184;2022-12-18T03:06:14;-1.70;63.10
15900;DHT22;8048;50.644;6.184;2022-12-18T03:08:40;-1.60;63.30
15900;DHT22;8048;50.644;6.184;2022-12-18T03:11:09;-1.60;63.20
15900;DHT22;8048;50.644;6.184;2022-12-18T03:16:05;-1.60;63.40
15900;DHT22;8048;50.644;6.184;2022-12-18T03:18:45;-1.60;63.80
15900;DHT22;8048;50.644;6.184;2022-12-18T03:21:14;-1.60;64.00
15900;DHT22;8048;50.644;6.184;2022-12-18T03:23:44;-1.70;64.00
15900;DHT22;8048;50.644;6.184;2022-12-18T03:26:12;-1.70;64.10
15900;DHT22;8048;50.644;6.184;2022-12-18T03:28:50;-1.70;64.30
15900;DHT22;8048;50.644;6.184;2022-12-18T03:31:17;-1.70;64.10
15900;DHT22;8048;50.644;6.184;2022-12-18T03:33:50;-1.70;64.30
15900;DHT22;8048;50.644;6.184;2022-12-18T03:36:16;-1.80;64.80
15900;DHT22;8048;50.644;6.184;2022-12-18T03:38:42;-1.80;64.70
15900;DHT22;8048;50.644;6.184;2022-12-18T03:41:24;-1.80;64.50
15900;DHT22;8048;50.644;6.184;2022-12-18T03:46:47;-1.80;64.70
15900;DHT22;8048;50.644;6.184;2022-12-18T03:49:27;-1.80;64.80
15900;DHT22;8048;50.644;6.184;2022-12-18T03:52:03;-1.80;64.70
15900;DHT22;8048;50.644;6.184;2022-12-18T03:54:30;-1.80;64.50
15900;DHT22;8048;50.644;6.184;2022-12-18T03:57:18;-1.80;64.80
15900;DHT22;8048;50.644;6.184;2022-12-18T03:59:45;-1.80;64.70
15900;DHT22;8048;50.644;6.184;2022-12-18T04:02:13;-1.70;64.80
15900;DHT22;8048;50.644;6.184;2022-12-18T04:04:41;-1.80;65.10
15900;DHT22;8048;50.644;6.184;2022-12-18T04:07:07;-1.80;64.70
15900;DHT22;8048;50.644;6.184;2022-12-18T04:09:34;-1.70;64.50
15900;DHT22;8048;50.644;6.184;2022-12-18T04:12:00;-1.70;64.20
15900;DHT22;8048;50.644;6.184;2022-12-18T04:14:26;-1.70;64.20
15900;DHT22;8048;50.644;6.184;2022-12-18T04:16:51;-1.70;64.10
15900;DHT22;8048;50.644;6.184;2022-12-18T04:19:17;-1.70;64.10
15900;DHT22;8048;50.644;6.184;2022-12-18T04:21:42;-1.70;63.90
15900;DHT22;8048;50.644;6.184;2022-12-18T04:24:08;-1.70;64.80
15900;DHT22;8048;50.644;6.184;2022-12-18T04:26:34;-1.60;64.00
15900;DHT22;8048;50.644;6.184;2022-12-18T04:28:59;-1.70;63.70
15900;DHT22;8048;50.644;6.184;2022-12-18T04:31:25;-1.60;64.00
15900;DHT22;8048;50.644;6.184;2022-12-18T04:33:51;-1.60;63.70
15900;DHT22;8048;50.644;6.184;2022-12-18T04:36:16;-1.70;63.40
15900;DHT22;8048;50.644;6.184;2022-12-18T04:38:42;-1.60;63.20
15900;DHT22;8048;50.644;6.184;2022-12-18T04:41:07;-1.50;62.90
15900;DHT22;8048;50.644;6.184;2022-12-18T04:43:33;-1.50;62.50
15900;DHT22;8048;50.644;6.184;2022-12-18T04:46:06;-1.40;61.80
15900;DHT22;8048;50.644;6.184;2022-12-18T04:48:32;-1.40;61.60
15900;DHT22;8048;50.644;6.184;2022-12-18T04:50:58;-1.50;61.10
15900;DHT22;8048;50.644;6.184;2022-12-18T04:53:23;-1.40;60.80
15900;DHT22;8048;50.644;6.184;2022-12-18T04:55:49;-1.40;60.80
15900;DHT22;8048;50.644;6.184;2022-12-18T04:58:14;-1.40;61.00
15900;DHT22;8048;50.644;6.184;2022-12-18T05:00:40;-1.40;60.50
15900;DHT22;8048;50.644;6.184;2022-12-18T05:03:05;-1.40;60.10
15900;DHT22;8048;50.644;6.184;2022-12-18T05:05:31;-1.40;60.10
15900;DHT22;8048;50.644;6.184;2022-12-18T05:07:57;-1.40;60.10
15900;DHT22;8048;50.644;6.184;2022-12-18T05:10:22;-1.30;59.80
15900;DHT22;8048;50.644;6.184;2022-12-18T05:12:48;-1.30;59.90
15900;DHT22;8048;50.644;6.184;2022-12-18T05:15:29;-1.30;60.00
15900;DHT22;8048;50.644;6.184;2022-12-18T05:17:56;-1.30;59.50
15900;DHT22;8048;50.644;6.184;2022-12-18T05:20:22;-1.30;59.50
15900;DHT22;8048;50.644;6.184;2022-12-18T05:22:47;-1.20;59.50
15900;DHT22;8048;50.644;6.184;2022-12-18T05:25:13;-1.30;59.60
15900;DHT22;8048;50.644;6.184;2022-12-18T05:27:39;-1.30;59.40
15900;DHT22;8048;50.644;6.184;2022-12-18T05:30:05;-1.30;59.30
15900;DHT22;8048;50.644;6.184;2022-12-18T05:32:30;-1.30;58.80
15900;DHT22;8048;50.644;6.184;2022-12-18T05:34:56;-1.30;58.80
15900;DHT22;8048;50.644;6.184;2022-12-18T05:37:22;-1.20;58.60
15900;DHT22;8048;50.644;6.184;2022-12-18T05:39:48;-1.20;58.60
15900;DHT22;8048;50.644;6.184;2022-12-18T05:42:13;-1.20;58.70
15900;DHT22;8048;50.644;6.184;2022-12-18T05:44:39;-1.30;58.60
15900;DHT22;8048;50.644;6.184;2022-12-18T05:47:05;-1.30;58.50
15900;DHT22;8048;50.644;6.184;2022-12-18T05:49:30;-1.30;58.30
15900;DHT22;8048;50.644;6.184;2022-12-18T05:51:56;-1.30;58.20
15900;DHT22;8048;50.644;6.184;2022-12-18T05:54:21;-1.30;57.90
15900;DHT22;8048;50.644;6.184;2022-12-18T05:56:47;-1.30;57.10
15900;DHT22;8048;50.644;6.184;2022-12-18T05:59:12;-1.10;56.40
15900;DHT22;8048;50.644;6.184;2022-12-18T06:01:38;-1.10;55.30
15900;DHT22;8048;50.644;6.184;2022-12-18T06:04:04;-1.00;54.70
15900;DHT22;8048;50.644;6.184;2022-12-18T06:06:29;-0.90;54.20
15900;DHT22;8048;50.644;6.184;2022-12-18T06:08:57;-0.80;54.30
15900;DHT22;8048;50.644;6.184;2022-12-18T06:11:24;-0.80;54.40
15900;DHT22;8048;50.644;6.184;2022-12-18T06:13:51;-0.80;54.10
15900;DHT22;8048;50.644;6.184;2022-12-18T06:16:17;-0.80;54.10
15900;DHT22;8048;50.644;6.184;2022-12-18T06:18:43;-0.70;53.70
15900;DHT22;8048;50.644;6.184;2022-12-18T06:21:08;-0.60;53.70
15900;DHT22;8048;50.644;6.184;2022-12-18T06:23:34;-0.60;53.80
15900;DHT22;8048;50.644;6.184;2022-12-18T06:26:04;-0.70;54.10
15900;DHT22;8048;50.644;6.184;2022-12-18T06:28:30;-0.70;53.60
15900;DHT22;8048;50.644;6.184;2022-12-18T06:30:56;-0.60;53.70
15900;DHT22;8048;50.644;6.184;2022-12-18T06:33:21;-0.60;53.40
15900;DHT22;8048;50.644;6.184;2022-12-18T06:35:50;-0.60;53.00
15900;DHT22;8048;50.644;6.184;2022-12-18T06:38:16;-0.50;53.10
15900;DHT22;8048;50.644;6.184;2022-12-18T06:40:41;-0.50;52.60
15900;DHT22;8048;50.644;6.184;2022-12-18T06:43:07;-0.40;52.70
15900;DHT22;8048;50.644;6.184;2022-12-18T06:45:33;-0.40;52.70
15900;DHT22;8048;50.644;6.184;2022-12-18T06:47:58;-0.40;52.40
15900;DHT22;8048;50.644;6.184;2022-12-18T06:50:24;-0.40;52.20
15900;DHT22;8048;50.644;6.184;2022-12-18T06:52:49;-0.30;51.90
15900;DHT22;8048;50.644;6.184;2022-12-18T06:55:15;-0.20;51.50
15900;DHT22;8048;50.644;6.184;2022-12-18T06:57:40;-0.10;51.30
15900;DHT22;8048;50.644;6.184;2022-12-18T07:00:07;-0.10;51.40
15900;DHT22;8048;50.644;6.184;2022-12-18T07:02:33;-0.20;51.60
15900;DHT22;8048;50.644;6.184;2022-12-18T07:04:58;-0.10;51.70
15900;DHT22;8048;50.644;6.184;2022-12-18T07:07:24;-0.10;51.50
15900;DHT22;8048;50.644;6.184;2022-12-18T07:09:50;0.00;52.00
15900;DHT22;8048;50.644;6.184;2022-12-18T07:12:16;-0.10;51.90
15900;DHT22;8048;50.644;6.184;2022-12-18T07:14:41;-0.10;51.80
15900;DHT22;8048;50.644;6.184;2022-12-18T07:17:07;-0.10;51.80
15900;DHT22;8048;50.644;6.184;2022-12-18T07:19:33;0.00;51.60
15900;DHT22;8048;50.644;6.184;2022-12-18T07:21:58;-0.10;51.60
15900;DHT22;8048;50.644;6.184;2022-12-18T07:24:24;-0.10;51.80
15900;DHT22;8048;50.644;6.184;2022-12-18T07:26:49;0.00;51.50
15900;DHT22;8048;50.644;6.184;2022-12-18T07:29:15;-0.10;51.50
15900;DHT22;8048;50.644;6.184;2022-12-18T07:31:41;-0.10;51.50
15900;DHT22;8048;50.644;6.184;2022-12-18T07:34:13;0.00;51.30
15900;DHT22;8048;50.644;6.184;2022-12-18T07:36:39;0.00;51.20
15900;DHT22;8048;50.644;6.184;2022-12-18T07:39:04;0.00;51.20
15900;DHT22;8048;50.644;6.184;2022-12-18T07:41:31;0.10;51.20
15900;DHT22;8048;50.644;6.184;2022-12-18T07:43:56;0.00;51.00
15900;DHT22;8048;50.644;6.184;2022-12-18T07:46:22;0.10;51.00
15900;DHT22;8048;50.644;6.184;2022-12-18T07:48:48;0.10;51.20
15900;DHT22;8048;50.644;6.184;2022-12-18T07:51:13;0.00;51.10
15900;DHT22;8048;50.644;6.184;2022-12-18T07:53:39;0.00;51.20
15900;DHT22;8048;50.644;6.184;2022-12-18T07:56:08;0.00;51.10
15900;DHT22;8048;50.644;6.184;2022-12-18T07:58:34;0.00;51.30
15900;DHT22;8048;50.644;6.184;2022-12-18T08:01:08;0.00;51.20
15900;DHT22;8048;50.644;6.184;2022-12-18T08:03:35;0.00;51.20
15900;DHT22;8048;50.644;6.184;2022-12-18T08:06:05;0.00;50.50
15900;DHT22;8048;50.644;6.184;2022-12-18T08:08:32;0.10;49.20
15900;DHT22;8048;50.644;6.184;2022-12-18T08:10:58;0.20;48.80
15900;DHT22;8048;50.644;6.184;2022-12-18T08:13:23;0.40;47.40
15900;DHT22;8048;50.644;6.184;2022-12-18T08:16:03;0.50;46.30
15900;DHT22;8048;50.644;6.184;2022-12-18T08:18:29;0.70;45.20
15900;DHT22;8048;50.644;6.184;2022-12-18T08:20:57;0.90;44.20
15900;DHT22;8048;50.644;6.184;2022-12-18T08:23:22;1.00;43.60
15900;DHT22;8048;50.644;6.184;2022-12-18T08:25:48;1.10;43.40
15900;DHT22;8048;50.644;6.184;2022-12-18T08:28:13;1.20;43.50
15900;DHT22;8048;50.644;6.184;2022-12-18T08:30:41;1.20;43.30
15900;DHT22;8048;50.644;6.184;2022-12-18T08:33:07;1.20;43.10
15900;DHT22;8048;50.644;6.184;2022-12-18T08:35:36;1.40;42.60
15900;DHT22;8048;50.644;6.184;2022-12-18T08:38:02;1.50;42.70
15900;DHT22;8048;50.644;6.184;2022-12-18T08:40:28;1.60;42.50
15900;DHT22;8048;50.644;6.184;2022-12-18T08:42:54;1.70;42.00
15900;DHT22;8048;50.644;6.184;2022-12-18T08:45:38;1.80;42.50
15900;DHT22;8048;50.644;6.184;2022-12-18T08:48:04;1.80;43.00
15900;DHT22;8048;50.644;6.184;2022-12-18T08:50:29;1.80;43.40
15900;DHT22;8048;50.644;6.184;2022-12-18T08:52:55;2.00;43.00
15900;DHT22;8048;50.644;6.184;2022-12-18T08:55:20;2.20;42.70
15900;DHT22;8048;50.644;6.184;2022-12-18T08:57:48;2.30;42.50
15900;DHT22;8048;50.644;6.184;2022-12-18T09:00:15;2.40;42.00
15900;DHT22;8048;50.644;6.184;2022-12-18T09:02:40;2.60;42.30
15900;DHT22;8048;50.644;6.184;2022-12-18T09:05:06;2.80;42.40
15900;DHT22;8048;50.644;6.184;2022-12-18T09:07:31;3.00;41.70
15900;DHT22;8048;50.644;6.184;2022-12-18T09:09:57;3.30;41.00
15900;DHT22;8048;50.644;6.184;2022-12-18T09:12:22;3.50;40.50
15900;DHT22;8048;50.644;6.184;2022-12-18T09:14:48;3.60;40.20
15900;DHT22;8048;50.644;6.184;2022-12-18T09:17:13;4.00;40.40
15900;DHT22;8048;50.644;6.184;2022-12-18T09:19:39;4.40;40.40
15900;DHT22;8048;50.644;6.184;2022-12-18T09:22:05;4.50;40.00
15900;DHT22;8048;50.644;6.184;2022-12-18T09:24:31;4.70;39.70
15900;DHT22;8048;50.644;6.184;2022-12-18T09:26:56;4.70;38.70
15900;DHT22;8048;50.644;6.184;2022-12-18T09:29:22;4.60;38.10
15900;DHT22;8048;50.644;6.184;2022-12-18T09:31:47;4.60;38.20
15900;DHT22;8048;50.644;6.184;2022-12-18T09:34:13;4.50;37.80
15900;DHT22;8048;50.644;6.184;2022-12-18T09:36:38;4.40;38.10
15900;DHT22;8048;50.644;6.184;2022-12-18T09:39:04;4.40;37.90
15900;DHT22;8048;50.644;6.184;2022-12-18T09:41:52;4.40;38.50
15900;DHT22;8048;50.644;6.184;2022-12-18T09:44:30;4.40;39.00
15900;DHT22;8048;50.644;6.184;2022-12-18T09:49:43;4.70;38.80
15900;DHT22;8048;50.644;6.184;2022-12-18T09:52:35;4.60;39.00
15900;DHT22;8048;50.644;6.184;2022-12-18T09:55:25;4.60;39.00
15900;DHT22;8048;50.644;6.184;2022-12-18T09:58:04;4.80;39.60
15900;DHT22;8048;50.644;6.184;2022-12-18T10:00:31;4.90;39.10
15900;DHT22;8048;50.644;6.184;2022-12-18T10:03:08;4.90;39.20
15900;DHT22;8048;50.644;6.184;2022-12-18T10:05:43;4.80;39.00
15900;DHT22;8048;50.644;6.184;2022-12-18T10:08:18;4.90;40.10
15900;DHT22;8048;50.644;6.184;2022-12-18T10:10:53;4.90;40.20
15900;DHT22;8048;50.644;6.184;2022-12-18T10:13:21;4.80;40.30
15900;DHT22;8048;50.644;6.184;2022-12-18T10:21:05;4.70;42.20
15900;DHT22;8048;50.644;6.184;2022-12-18T10:23:43;4.50;42.40
15900;DHT22;8048;50.644;6.184;2022-12-18T10:26:13;4.50;42.60
15900;DHT22;8048;50.644;6.184;2022-12-18T10:28:40;4.40;42.50
15900;DHT22;8048;50.644;6.184;2022-12-18T10:31:16;4.40;42.70
15900;DHT22;8048;50.644;6.184;2022-12-18T10:33:42;4.40;42.70
15900;DHT22;8048;50.644;6.184;2022-12-18T10:36:08;4.40;43.50
15900;DHT22;8048;50.644;6.184;2022-12-18T10:38:34;4.50;42.40
15900;DHT22;8048;50.644;6.184;2022-12-18T10:43:47;4.70;41.60
15900;DHT22;8048;50.644;6.184;2022-12-18T10:46:19;4.90;41.60
15900;DHT22;8048;50.644;6.184;2022-12-18T10:51:32;4.90;40.90
15900;DHT22;8048;50.644;6.184;2022-12-18T10:54:03;4.90;41.10
15900;DHT22;8048;50.644;6.184;2022-12-18T10:56:31;4.90;41.70
15900;DHT22;8048;50.644;6.184;2022-12-18T10:59:03;4.90;41.60
15900;DHT22;8048;50.644;6.184;2022-12-18T11:02:07;4.90;41.50
15900;DHT22;8048;50.644;6.184;2022-12-18T11:04:51;4.90;41.40
15900;DHT22;8048;50.644;6.184;2022-12-18T11:07:16;4.90;41.90
15900;DHT22;8048;50.644;6.184;2022-12-18T11:09:42;5.00;42.20
15900;DHT22;8048;50.644;6.184;2022-12-18T11:12:19;5.00;41.70
15900;DHT22;8048;50.644;6.184;2022-12-18T11:14:52;5.00;40.50
15900;DHT22;8048;50.644;6.184;2022-12-18T11:17:30;5.00;40.90
15900;DHT22;8048;50.644;6.184;2022-12-18T11:19:58;5.00;41.00
15900;DHT22;8048;50.644;6.184;2022-12-18T11:22:32;5.00;41.40
15900;DHT22;8048;50.644;6.184;2022-12-18T11:27:41;4.90;40.40
15900;DHT22;8048;50.644;6.184;2022-12-18T11:30:24;4.80;40.80
15900;DHT22;8048;50.644;6.184;2022-12-18T11:33:10;4.70;41.40
15900;DHT22;8048;50.644;6.184;2022-12-18T11:38:34;4.50;42.80
15900;DHT22;8048;50.644;6.184;2022-12-18T11:43:40;4.20;43.30
15900;DHT22;8048;50.644;6.184;2022-12-18T11:46:13;4.10;43.60
15900;DHT22;8048;50.644;6.184;2022-12-18T11:48:52;4.10;43.60
15900;DHT22;8048;50.644;6.184;2022-12-18T11:51:33;4.00;43.80
15900;DHT22;8048;50.644;6.184;2022-12-18T11:54:00;4.10;43.40
15900;DHT22;8048;50.644;6.184;2022-12-18T11:56:31;4.10;43.50
15900;DHT22;8048;50.644;6.184;2022-12-18T11:59:05;4.20;43.10
15900;DHT22;8048;50.644;6.184;2022-12-18T12:01:48;4.20;43.20
15900;DHT22;8048;50.644;6.184;2022-12-18T12:07:29;4.20;44.10
15900;DHT22;8048;50.644;6.184;2022-12-18T12:10:34;4.10;43.90
15900;DHT22;8048;50.644;6.184;2022-12-18T12:13:26;4.00;44.20
15900;DHT22;8048;50.644;6.184;2022-12-18T12:21:43;4.10;44.20
15900;DHT22;8048;50.644;6.184;2022-12-18T12:24:49;4.00;44.80
15900;DHT22;8048;50.644;6.184;2022-12-18T12:30:21;4.10;45.70
15900;DHT22;8048;50.644;6.184;2022-12-18T12:33:18;4.10;46.50
15900;DHT22;8048;50.644;6.184;2022-12-18T12:38:59;4.10;46.80
15900;DHT22;8048;50.644;6.184;2022-12-18T12:41:31;4.10;47.10
15900;DHT22;8048;50.644;6.184;2022-12-18T12:44:29;4.10;47.20
15900;DHT22;8048;50.644;6.184;2022-12-18T12:47:00;4.00;47.90
15900;DHT22;8048;50.644;6.184;2022-12-18T12:49:31;4.00;48.00
15900;DHT22;8048;50.644;6.184;2022-12-18T12:52:05;4.00;49.00
15900;DHT22;8048;50.644;6.184;2022-12-18T12:54:32;3.90;49.90
15900;DHT22;8048;50.644;6.184;2022-12-18T12:57:12;3.90;51.60
15900;DHT22;8048;50.644;6.184;2022-12-18T13:02:49;3.80;54.80
15900;DHT22;8048;50.644;6.184;2022-12-18T13:05:34;3.80;56.10
15900;DHT22;8048;50.644;6.184;2022-12-18T13:08:07;3.70;57.10
15900;DHT22;8048;50.644;6.184;2022-12-18T13:10:44;3.70;57.90
15900;DHT22;8048;50.644;6.184;2022-12-18T13:13:11;3.70;58.10
15900;DHT22;8048;50.644;6.184;2022-12-18T13:15:40;3.80;58.40
15900;DHT22;8048;50.644;6.184;2022-12-18T13:20:40;3.80;59.10
15900;DHT22;8048;50.644;6.184;2022-12-18T13:23:29;3.80;59.40
15900;DHT22;8048;50.644;6.184;2022-12-18T13:34:25;3.70;60.60
15900;DHT22;8048;50.644;6.184;2022-12-18T13:36:52;3.70;61.30
15900;DHT22;8048;50.644;6.184;2022-12-18T13:44:35;3.60;62.80
15900;DHT22;8048;50.644;6.184;2022-12-18T13:47:03;3.50;63.20
15900;DHT22;8048;50.644;6.184;2022-12-18T13:49:39;3.40;64.20
15900;DHT22;8048;50.644;6.184;2022-12-18T13:52:21;3.40;65.00
15900;DHT22;8048;50.644;6.184;2022-12-18T13:54:57;3.30;65.00
15900;DHT22;8048;50.644;6.184;2022-12-18T13:57:29;3.30;64.80
15900;DHT22;8048;50.644;6.184;2022-12-18T13:59:56;3.30;64.80
15900;DHT22;8048;50.644;6.184;2022-12-18T14:02:24;3.20;65.20
15900;DHT22;8048;50.644;6.184;2022-12-18T14:04:51;3.20;65.00
15900;DHT22;8048;50.644;6.184;2022-12-18T14:07:22;3.20;65.30
15900;DHT22;8048;50.644;6.184;2022-12-18T14:09:53;3.20;65.70
15900;DHT22;8048;50.644;6.184;2022-12-18T14:12:26;3.10;66.00
15900;DHT22;8048;50.644;6.184;2022-12-18T14:17:57;2.90;66.90
15900;DHT22;8048;50.644;6.184;2022-12-18T14:20:30;2.80;67.10
15900;DHT22;8048;50.644;6.184;2022-12-18T14:22:56;2.70;67.30
15900;DHT22;8048;50.644;6.184;2022-12-18T14:25:25;2.70;67.80
15900;DHT22;8048;50.644;6.184;2022-12-18T14:30:39;2.60;68.10
15900;DHT22;8048;50.644;6.184;2022-12-18T14:33:13;2.60;68.20
15900;DHT22;8048;50.644;6.184;2022-12-18T14:35:42;2.60;68.20
15900;DHT22;8048;50.644;6.184;2022-12-18T14:38:30;2.50;68.20
15900;DHT22;8048;50.644;6.184;2022-12-18T14:41:13;2.40;68.50
15900;DHT22;8048;50.644;6.184;2022-12-18T14:43:41;2.40;69.20
15900;DHT22;8048;50.644;6.184;2022-12-18T14:52:02;2.30;69.80
15900;DHT22;8048;50.644;6.184;2022-12-18T14:54:29;2.20;69.80
15900;DHT22;8048;50.644;6.184;2022-12-18T14:57:01;2.20;70.10
15900;DHT22;8048;50.644;6.184;2022-12-18T14:59:28;2.20;69.60
15900;DHT22;8048;50.644;6.184;2022-12-18T15:04:35;2.10;70.00
15900;DHT22;8048;50.644;6.184;2022-12-18T15:07:22;2.10;70.10
15900;DHT22;8048;50.644;6.184;2022-12-18T15:12:36;2.00;69.30
15900;DHT22;8048;50.644;6.184;2022-12-18T15:15:04;2.00;70.10
15900;DHT22;8048;50.644;6.184;2022-12-18T15:17:30;1.90;69.80
15900;DHT22;8048;50.644;6.184;2022-12-18T15:20:01;1.90;69.80
15900;DHT22;8048;50.644;6.184;2022-12-18T15:22:30;1.80;69.80
15900;DHT22;8048;50.644;6.184;2022-12-18T15:24:57;1.80;70.00
15900;DHT22;8048;50.644;6.184;2022-12-18T15:27:36;1.70;70.10
15900;DHT22;8048;50.644;6.184;2022-12-18T15:32:36;1.60;69.50
15900;DHT22;8048;50.644;6.184;2022-12-18T15:37:34;1.60;69.20
15900;DHT22;8048;50.644;6.184;2022-12-18T15:40:00;1.50;69.30
15900;DHT22;8048;50.644;6.184;2022-12-18T15:42:25;1.50;70.00
15900;DHT22;8048;50.644;6.184;2022-12-18T15:45:13;1.50;69.30
15900;DHT22;8048;50.644;6.184;2022-12-18T15:47:39;1.50;68.30
15900;DHT22;8048;50.644;6.184;2022-12-18T15:50:04;1.60;67.40
15900;DHT22;8048;50.644;6.184;2022-12-18T15:52:39;1.70;66.00
15900;DHT22;8048;50.644;6.184;2022-12-18T15:55:11;1.70;64.10
15900;DHT22;8048;50.644;6.184;2022-12-18T15:57:56;1.80;64.30
15900;DHT22;8048;50.644;6.184;2022-12-18T16:00:22;1.80;62.90
15900;DHT22;8048;50.644;6.184;2022-12-18T16:02:47;1.80;62.40
15900;DHT22;8048;50.644;6.184;2022-12-18T16:05:18;1.80;63.20
15900;DHT22;8048;50.644;6.184;2022-12-18T16:07:44;1.90;61.50
15900;DHT22;8048;50.644;6.184;2022-12-18T16:10:10;1.90;61.80
15900;DHT22;8048;50.644;6.184;2022-12-18T16:12:36;1.90;60.10
15900;DHT22;8048;50.644;6.184;2022-12-18T16:15:03;2.00;60.30
15900;DHT22;8048;50.644;6.184;2022-12-18T16:17:29;2.00;59.60
15900;DHT22;8048;50.644;6.184;2022-12-18T16:19:55;2.00;59.20
15900;DHT22;8048;50.644;6.184;2022-12-18T16:22:26;2.10;58.90
15900;DHT22;8048;50.644;6.184;2022-12-18T16:24:53;2.10;58.80
15900;DHT22;8048;50.644;6.184;2022-12-18T16:27:20;2.10;59.10
15900;DHT22;8048;50.644;6.184;2022-12-18T16:29:45;2.10;58.80
15900;DHT22;8048;50.644;6.184;2022-12-18T16:32:14;2.00;59.30
15900;DHT22;8048;50.644;6.184;2022-12-18T16:34:40;2.00;59.60
15900;DHT22;8048;50.644;6.184;2022-12-18T16:37:08;2.00;58.80
15900;DHT22;8048;50.644;6.184;2022-12-18T16:39:35;2.00;59.30
15900;DHT22;8048;50.644;6.184;2022-12-18T16:42:03;1.90;59.30
15900;DHT22;8048;50.644;6.184;2022-12-18T16:44:29;1.90;59.30
15900;DHT22;8048;50.644;6.184;2022-12-18T16:46:55;1.80;59.60
15900;DHT22;8048;50.644;6.184;2022-12-18T16:49:27;1.80;59.50
15900;DHT22;8048;50.644;6.184;2022-12-18T16:51:53;1.80;59.70
15900;DHT22;8048;50.644;6.184;2022-12-18T16:54:18;1.70;60.20
15900;DHT22;8048;50.644;6.184;2022-12-18T16:56:44;1.70;59.80
15900;DHT22;8048;50.644;6.184;2022-12-18T16:59:11;1.70;59.60
15900;DHT22;8048;50.644;6.184;2022-12-18T17:01:38;1.60;60.10
15900;DHT22;8048;50.644;6.184;2022-12-18T17:04:05;1.60;59.80
15900;DHT22;8048;50.644;6.184;2022-12-18T17:06:32;1.60;60.40
15900;DHT22;8048;50.644;6.184;2022-12-18T17:09:00;1.60;60.30
15900;DHT22;8048;50.644;6.184;2022-12-18T17:11:27;1.50;60.60
15900;DHT22;8048;50.644;6.184;2022-12-18T17:13:53;1.50;60.30
15900;DHT22;8048;50.644;6.184;2022-12-18T17:16:20;1.50;60.00
15900;DHT22;8048;50.644;6.184;2022-12-18T17:18:45;1.50;59.50
15900;DHT22;8048;50.644;6.184;2022-12-18T17:21:12;1.60;59.50
15900;DHT22;8048;50.644;6.184;2022-12-18T17:23:39;1.60;59.40
15900;DHT22;8048;50.644;6.184;2022-12-18T17:26:05;1.60;59.40
15900;DHT22;8048;50.644;6.184;2022-12-18T17:28:33;1.70;58.70
15900;DHT22;8048;50.644;6.184;2022-12-18T17:30:59;1.70;58.90
15900;DHT22;8048;50.644;6.184;2022-12-18T17:33:24;1.60;58.50
15900;DHT22;8048;50.644;6.184;2022-12-18T17:35:50;1.60;58.70
15900;DHT22;8048;50.644;6.184;2022-12-18T17:38:16;1.60;58.60
15900;DHT22;8048;50.644;6.184;2022-12-18T17:40:42;1.70;58.70
15900;DHT22;8048;50.644;6.184;2022-12-18T17:43:09;1.60;58.50
15900;DHT22;8048;50.644;6.184;2022-12-18T17:45:38;1.60;58.90
15900;DHT22;8048;50.644;6.184;2022-12-18T17:48:04;1.70;58.60
15900;DHT22;8048;50.644;6.184;2022-12-18T17:50:34;1.60;58.70
15900;DHT22;8048;50.644;6.184;2022-12-18T17:53:01;1.60;58.00